Time;durP1;ratioP1;P1;durP2;ratioP2;P2;SDS_P1;SDS_P2;PMS_P1;PMS_P2;Temp;Humidity;BMP_temperature;BMP_pressure;BME280_temperature;BME280_humidity;BME280_pressure;Samples;Min_cycle;Max_cycle;Signal;HPM_P1;HPM_P2
2022/12/01 00:01:14;;;;;;;1.23;1.20;;;;;;;-13.87;85.27;101851.81;5090338;28;20044;-82
2022/12/01 00:03:42;;;;;;;1.50;1.40;;;;;;;-13.87;85.28;101852.72;5092163;28;20173;-82
2022/12/01 00:06:11;;;;;;;1.50;1.40;;;;;;;-13.95;85.17;101848.47;5093379;28;20048;-82
2022/12/01 00:08:38;;;;;;;1.67;1.58;;;;;;;-13.95;85.30;101859.72;5093046;28;20053;-82
2022/12/01 00:11:07;;;;;;;1.45;1.35;;;;;;;-13.94;85.22;101864.03;5094193;28;20056;-82
2022/12/01 00:13:35;;;;;;;1.40;1.30;;;;;;;-13.90;85.33;101857.06;5094376;28;20047;-81
2022/12/01 00:16:28;;;;;;;1.48;1.38;;;;;;;-13.85;85.30;101845.72;5094629;28;20567;-83
2022/12/01 00:18:56;;;;;;;1.60;1.50;;;;;;;-13.85;84.87;101842.28;5092840;28;20580;-82
2022/12/01 00:21:24;;;;;;;1.75;1.65;;;;;;;-13.90;84.87;101838.88;5076663;28;20575;-82
2022/12/01 00:23:53;;;;;;;1.50;1.40;;;;;;;-13.93;84.88;101834.59;5094111;28;20556;-82
2022/12/01 00:26:21;;;;;;;1.70;1.60;;;;;;;-13.99;84.76;101838.13;5094401;28;20403;-82
2022/12/01 00:28:52;;;;;;;1.50;1.40;;;;;;;-14.07;84.79;101834.78;5094136;28;20048;-83
2022/12/01 00:31:20;;;;;;;1.67;1.58;;;;;;;-14.11;84.81;101846.06;5094115;28;20052;-81
2022/12/01 00:33:48;;;;;;;1.52;1.42;;;;;;;-14.08;84.95;101842.56;5093596;28;20059;-81
2022/12/01 00:36:16;;;;;;;1.70;1.60;;;;;;;-14.07;84.97;101842.56;5094030;28;20135;-82
2022/12/01 00:38:43;;;;;;;1.58;1.48;;;;;;;-14.05;84.86;101837.34;5092397;28;20491;-81
2022/12/01 00:41:11;;;;;;;1.55;1.45;;;;;;;-14.08;84.64;101835.63;5092607;28;20513;-84
2022/12/01 00:43:38;;;;;;;1.70;1.60;;;;;;;-14.05;84.95;101843.41;5093781;28;20055;-81
2022/12/01 00:46:05;;;;;;;1.52;1.42;;;;;;;-14.07;84.75;101844.31;5092565;28;20044;-81
2022/12/01 00:48:33;;;;;;;1.48;1.38;;;;;;;-14.12;84.86;101841.75;5094045;28;20414;-82
2022/12/01 00:51:00;;;;;;;1.55;1.45;;;;;;;-14.13;84.91;101850.41;5093713;28;20059;-82
2022/12/01 00:53:27;;;;;;;1.50;1.40;;;;;;;-14.13;84.90;101852.16;5093661;28;20051;-82
2022/12/01 00:55:54;;;;;;;1.40;1.30;;;;;;;-14.15;84.74;101857.38;5092724;28;20402;-82
2022/12/01 00:58:22;;;;;;;1.60;1.50;;;;;;;-14.12;84.87;101846.97;5093964;28;20169;-81
2022/12/01 01:00:57;;;;;;;1.48;1.38;;;;;;;-14.08;84.87;101848.63;5093880;28;20048;-83
2022/12/01 01:03:25;;;;;;;1.63;1.52;;;;;;;-14.08;84.93;101843.44;5093665;28;20068;-83
2022/12/01 01:05:52;;;;;;;1.50;1.40;;;;;;;-14.10;84.89;101840.00;5092455;28;20430;-82
2022/12/01 01:08:19;;;;;;;1.50;1.40;;;;;;;-14.07;84.98;101845.16;5092187;28;20491;-81
2022/12/01 01:10:47;;;;;;;1.50;1.40;;;;;;;-14.09;84.83;101846.91;5093216;28;20422;-82
2022/12/01 01:13:14;;;;;;;1.40;1.30;;;;;;;-14.13;84.72;101846.97;5093434;28;20395;-83
2022/12/01 01:15:41;;;;;;;1.20;1.20;;;;;;;-14.16;84.71;101842.66;5092225;28;20248;-82
2022/12/01 01:18:10;;;;;;;1.70;1.60;;;;;;;-14.19;84.67;101847.91;5093249;28;20067;-82
2022/12/01 01:20:37;;;;;;;1.55;1.45;;;;;;;-14.26;84.48;101849.69;5092953;28;20058;-81
2022/12/01 01:23:05;;;;;;;1.40;1.30;;;;;;;-14.30;84.72;101853.22;5092851;28;20048;-82
2022/12/01 01:25:32;;;;;;;1.60;1.50;;;;;;;-14.23;84.58;101854.00;5092760;28;20075;-82
2022/12/01 01:27:59;;;;;;;1.30;1.20;;;;;;;-14.25;84.25;101847.97;5091700;28;20058;-82
2022/12/01 01:30:26;;;;;;;1.45;1.35;;;;;;;-14.31;84.04;101845.44;5092575;28;20087;-81
2022/12/01 01:32:54;;;;;;;1.58;1.48;;;;;;;-14.36;84.17;101837.69;5092743;28;20143;-82
2022/12/01 01:35:21;;;;;;;1.65;1.55;;;;;;;-14.38;84.11;101844.63;5092903;28;20048;-82
2022/12/01 01:37:49;;;;;;;1.38;1.27;;;;;;;-14.44;84.13;101840.38;5092652;28;20048;-82
2022/12/01 01:40:17;;;;;;;1.45;1.35;;;;;;;-14.41;84.14;101836.88;5092979;28;20056;-81
2022/12/01 01:42:44;;;;;;;1.52;1.42;;;;;;;-14.33;84.22;101839.41;5091160;28;20044;-82
2022/12/01 01:45:22;;;;;;;1.50;1.40;;;;;;;-14.27;84.23;101834.16;5092824;28;20430;-81
2022/12/01 01:47:51;;;;;;;1.80;1.70;;;;;;;-14.26;84.16;101822.91;5092818;28;20058;-82
2022/12/01 01:50:20;;;;;;;1.40;1.30;;;;;;;-14.23;84.14;101822.84;5091204;28;20048;-82
2022/12/01 01:52:50;;;;;;;1.50;1.40;;;;;;;-14.22;83.92;101825.44;5091138;28;20048;-82
2022/12/01 01:55:17;;;;;;;1.65;1.55;;;;;;;-14.22;83.96;101824.59;5092498;28;20077;-81
2022/12/01 01:57:45;;;;;;;1.42;1.33;;;;;;;-14.20;83.96;101821.09;5090805;28;20589;-82
2022/12/01 02:00:16;;;;;;;1.70;1.60;;;;;;;-14.19;83.92;101825.41;5092085;28;20117;-82
2022/12/01 02:02:45;;;;;;;1.35;1.25;;;;;;;-14.18;83.97;101826.25;5092130;28;20052;-82
2022/12/01 02:05:22;;;;;;;1.38;1.27;;;;;;;-14.14;83.99;101827.94;5091007;28;20486;-82
2022/12/01 02:07:51;;;;;;;1.35;1.25;;;;;;;-14.13;83.89;101827.06;5090854;28;20044;-80
2022/12/01 02:10:23;;;;;;;1.50;1.40;;;;;;;-14.13;83.85;101832.25;5091196;28;20453;-82
2022/12/01 02:13:00;;;;;;;1.50;1.40;;;;;;;-14.19;83.63;101835.78;5091179;28;20063;-82
2022/12/01 02:15:42;;;;;;;1.58;1.48;;;;;;;-14.21;83.57;101831.47;5074361;28;20166;-82
2022/12/01 02:18:44;;;;;;;1.40;1.30;;;;;;;-14.23;83.65;101833.22;5092409;28;20044;-82
2022/12/01 02:21:38;;;;;;;1.60;1.50;;;;;;;-14.25;83.53;101832.41;5092117;28;20055;-81
2022/12/01 02:24:39;;;;;;;1.48;1.38;;;;;;;-14.26;83.52;101830.69;5091899;28;20076;-82
2022/12/01 02:27:19;;;;;;;1.60;1.50;;;;;;;-14.27;83.70;101827.22;5092042;28;20048;-82
2022/12/01 02:30:07;;;;;;;1.60;1.50;;;;;;;-14.21;83.52;101828.88;5089960;28;20604;-81
2022/12/01 02:32:37;;;;;;;1.50;1.40;;;;;;;-14.17;83.59;101838.38;5091356;28;20144;-82
2022/12/01 02:35:39;;;;;;;1.23;1.20;;;;;;;-14.11;83.55;101827.91;5091645;28;20531;-83
2022/12/01 02:38:06;;;;;;;1.58;1.48;;;;;;;-14.07;83.53;101826.16;5048965;28;20152;-82
2022/12/01 02:40:51;;;;;;;1.50;1.40;;;;;;;-14.05;83.24;101819.16;5048855;28;20045;-83
2022/12/01 02:43:43;;;;;;;1.38;1.27;;;;;;;-14.07;83.05;101829.59;5032402;28;20092;-82
2022/12/01 02:46:16;;;;;;;1.02;1.02;;;;;;;-14.06;83.16;101826.09;5048735;28;20059;-82
2022/12/01 02:48:47;;;;;;;1.40;1.30;;;;;;;-14.05;83.01;101827.84;5032126;28;20497;-82
2022/12/01 02:51:22;;;;;;;1.35;1.25;;;;;;;-14.01;82.77;101821.72;5048592;28;20053;-82
2022/12/01 02:53:49;;;;;;;1.52;1.42;;;;;;;-14.00;83.07;101818.25;5032118;28;20569;-82
2022/12/01 02:56:20;;;;;;;1.13;1.13;;;;;;;-13.96;82.83;101813.88;5048666;28;20056;-83
2022/12/01 02:58:47;;;;;;;1.40;1.30;;;;;;;-14.00;82.72;101817.38;5049954;28;20632;-83
2022/12/01 03:01:33;;;;;;;1.40;1.30;;;;;;;-13.99;82.71;101816.50;5051995;28;20044;-83
2022/12/01 03:04:18;;;;;;;1.20;1.20;;;;;;;-13.98;82.76;101813.03;5048339;28;20505;-82
2022/12/01 03:06:54;;;;;;;;;;;;;;;-13.95;82.83;101818.16;5048505;28;20053;-82
2022/12/01 03:09:40;;;;;;;1.50;1.40;;;;;;;-13.98;82.62;101813.88;5031673;28;19971;-82
2022/12/01 03:12:09;;;;;;;1.30;1.20;;;;;;;-13.95;82.41;101817.31;5048241;28;20061;-81
2022/12/01 03:15:11;;;;;;;1.40;1.30;;;;;;;-13.91;82.60;101816.41;5065562;28;20056;-82
2022/12/01 03:17:49;;;;;;;1.60;1.50;;;;;;;-13.87;82.57;101812.88;5090488;28;20048;-82
2022/12/01 03:20:29;;;;;;;1.20;1.20;;;;;;;-13.84;82.64;101813.72;5072931;28;20055;-81
2022/12/01 03:23:06;;;;;;;1.60;1.50;;;;;;;-13.83;82.73;101815.41;5089232;28;20113;-83
2022/12/01 03:25:34;;;;;;;1.40;1.30;;;;;;;-13.80;82.65;101820.59;5089319;28;20059;-82
2022/12/01 03:28:03;;;;;;;1.65;1.55;;;;;;;-13.82;82.95;101814.56;5089450;28;20506;-83
2022/12/01 03:30:50;;;;;;;1.67;1.58;;;;;;;-13.84;82.73;101821.50;5090462;28;20067;-82
2022/12/01 03:33:24;;;;;;;1.40;1.30;;;;;;;-13.84;82.84;101823.25;5089744;28;20047;-82
2022/12/01 03:36:02;;;;;;;1.60;1.50;;;;;;;-13.85;82.85;101818.91;5092068;28;20476;-83
2022/12/01 03:38:30;;;;;;;1.48;1.38;;;;;;;-13.85;82.81;101818.91;5090886;28;20063;-82
2022/12/01 03:41:02;;;;;;;1.55;1.45;;;;;;;-13.87;82.65;101826.75;5090393;28;20048;-83
2022/12/01 03:43:33;;;;;;;1.40;1.30;;;;;;;-13.95;82.53;101810.38;5089384;28;20048;-81
2022/12/01 03:46:18;;;;;;;1.50;1.40;;;;;;;-13.91;82.49;101819.00;5088893;28;20052;-82
2022/12/01 03:48:45;;;;;;;1.60;1.50;;;;;;;-13.88;82.47;101818.97;5055784;28;20044;-83
2022/12/01 03:51:30;;;;;;;1.50;1.40;;;;;;;-13.87;82.35;101818.06;5088608;28;20060;-82
2022/12/01 03:54:06;;;;;;;1.45;1.35;;;;;;;-13.88;82.45;101818.97;5083054;28;20135;-81
2022/12/01 03:56:40;;;;;;;1.30;1.20;;;;;;;-13.87;82.46;101813.75;5071680;28;20053;-82
2022/12/01 03:59:07;;;;;;;1.55;1.45;;;;;;;-13.88;82.44;101818.97;5087045;28;20085;-81
2022/12/01 04:01:35;;;;;;;1.48;1.38;;;;;;;-13.87;82.21;101820.66;5083022;28;20044;-83
2022/12/01 04:04:07;;;;;;;1.50;1.40;;;;;;;-13.87;82.40;101821.56;5085705;28;20047;-82
2022/12/01 04:06:34;;;;;;;1.50;1.40;;;;;;;-13.87;82.25;101818.06;5089557;28;20052;-82
2022/12/01 04:09:01;;;;;;;1.20;1.20;;;;;;;-13.88;82.15;101824.16;5071377;28;20097;-81
2022/12/01 04:14:20;;;;;;;1.40;1.30;;;;;;;-13.87;82.27;101815.47;5092032;28;20067;-81
2022/12/01 04:16:47;;;;;;;1.40;1.30;;;;;;;-13.91;82.09;101813.81;5087765;28;20048;-81
2022/12/01 04:19:14;;;;;;;1.48;1.38;;;;;;;-13.91;82.14;101817.25;5096469;28;20143;-82
2022/12/01 04:21:41;;;;;;;1.40;1.30;;;;;;;-13.89;82.16;101818.09;5091676;28;20150;-80
2022/12/01 04:24:10;;;;;;;1.33;1.23;;;;;;;-13.93;81.83;101812.97;5086131;28;20054;-80
2022/12/01 04:26:37;;;;;;;1.42;1.33;;;;;;;-13.88;82.12;101816.38;5074745;28;20146;-85
2022/12/01 04:29:06;;;;;;;1.15;1.15;;;;;;;-13.93;82.09;101819.00;5087330;28;20059;-80
2022/12/01 04:31:33;;;;;;;1.42;1.33;;;;;;;-13.95;82.05;101814.72;5068218;28;20056;-82
2022/12/01 04:34:01;;;;;;;1.15;1.15;;;;;;;-13.91;82.00;101819.00;5080166;28;20044;-83
2022/12/01 04:36:33;;;;;;;1.45;1.35;;;;;;;-13.95;82.19;101812.13;5080870;28;20056;-82
2022/12/01 04:39:00;;;;;;;1.17;1.17;;;;;;;-13.89;81.95;101825.03;5079094;28;20045;-82
2022/12/01 04:41:27;;;;;;;1.33;1.23;;;;;;;-13.92;81.93;101822.47;5086016;28;20423;-84
2022/12/01 04:43:55;;;;;;;1.52;1.42;;;;;;;-13.90;81.97;101825.91;5078996;28;20051;-83
2022/12/01 04:46:23;;;;;;;1.50;1.40;;;;;;;-13.92;81.84;101823.34;5083830;28;20121;-82
2022/12/01 04:48:50;;;;;;;1.38;1.27;;;;;;;-13.91;82.00;101827.66;5079827;28;20219;-82
2022/12/01 04:51:18;;;;;;;1.40;1.30;;;;;;;-13.88;81.90;101826.75;5078797;28;20051;-82
2022/12/01 04:53:45;;;;;;;1.40;1.30;;;;;;;-13.87;82.11;101826.75;5083292;28;20520;-84
2022/12/01 04:56:12;;;;;;;1.50;1.40;;;;;;;-13.80;82.06;101832.69;5091219;28;20109;-84
2022/12/01 04:58:39;;;;;;;1.30;1.20;;;;;;;-13.76;82.00;101830.03;5084373;28;20076;-87
2022/12/01 05:01:09;;;;;;;1.40;1.30;;;;;;;-13.78;82.33;101820.56;5083602;28;20131;-84
2022/12/01 05:03:37;;;;;;;1.33;1.23;;;;;;;-13.79;82.20;101824.03;5085914;28;20546;-83
2022/12/01 05:06:12;;;;;;;1.50;1.40;;;;;;;-13.80;82.25;101820.59;4730449;28;10000653;-83
2022/12/01 05:08:40;;;;;;;0.95;0.95;;;;;;;-13.80;82.32;101828.38;5083949;28;20043;-84
2022/12/01 05:11:10;;;;;;;1.25;1.17;;;;;;;-13.84;82.50;101821.50;5063132;28;20063;-85
2022/12/01 05:13:39;;;;;;;1.65;1.55;;;;;;;-13.83;82.63;101830.16;5081779;28;20098;-85
2022/12/01 05:16:11;;;;;;;1.40;1.30;;;;;;;-13.82;82.72;101824.06;5085026;28;20135;-84
2022/12/01 05:18:39;;;;;;;1.27;1.20;;;;;;;-13.79;82.80;101839.63;5086668;28;20047;-83
2022/12/01 05:21:08;;;;;;;1.60;1.50;;;;;;;-13.77;83.04;101843.06;5081813;28;20131;-86
2022/12/01 05:23:36;;;;;;;1.60;1.50;;;;;;;-13.73;83.09;101839.53;5085852;28;20051;-82
2022/12/01 05:26:08;;;;;;;1.50;1.40;;;;;;;-13.71;83.13;101837.78;5078799;28;20229;-86
2022/12/01 05:28:35;;;;;;;1.40;1.30;;;;;;;-13.68;83.40;101831.69;5077386;28;20048;-83
2022/12/01 05:31:03;;;;;;;1.50;1.40;;;;;;;-13.65;83.24;101840.28;5077861;28;20551;-85
2022/12/01 05:33:30;;;;;;;1.42;1.33;;;;;;;-13.66;83.25;101824.72;5069011;28;20075;-84
2022/12/01 05:35:57;;;;;;;1.40;1.30;;;;;;;-13.61;83.29;101828.97;5091809;28;20121;-84
2022/12/01 05:38:24;;;;;;;1.40;1.30;;;;;;;-13.59;83.16;101831.56;5073084;28;20127;-84
2022/12/01 05:40:55;;;;;;;1.50;1.40;;;;;;;-13.58;83.18;101835.88;5074268;28;20049;-83
2022/12/01 05:43:22;;;;;;;1.70;1.60;;;;;;;-13.58;83.20;101831.53;5084609;28;20048;-83
2022/12/01 05:45:56;;;;;;;1.70;1.60;;;;;;;-13.51;83.17;101834.91;5083692;28;20050;-85
2022/12/01 05:48:25;;;;;;;1.50;1.40;;;;;;;-13.46;83.16;101834.84;5083419;28;20529;-83
2022/12/01 05:50:53;;;;;;;1.40;1.30;;;;;;;-13.42;83.02;101828.69;5079834;28;20052;-83
2022/12/01 05:53:20;;;;;;;1.35;1.25;;;;;;;-13.37;82.78;101837.28;5083897;28;20059;-83
2022/12/01 05:55:53;;;;;;;1.45;1.35;;;;;;;-13.31;83.06;101842.41;5070086;28;20503;-84
2022/12/01 05:58:21;;;;;;;1.40;1.30;;;;;;;-13.31;82.71;101850.19;5064724;28;20075;-83
2022/12/01 06:00:48;;;;;;;1.52;1.42;;;;;;;-13.38;82.91;101852.03;5079195;28;20396;-83
2022/12/01 06:03:15;;;;;;;1.70;1.60;;;;;;;-13.35;82.75;101862.38;5080859;28;20056;-84
2022/12/01 06:05:42;;;;;;;1.30;1.20;;;;;;;-13.35;82.83;101866.72;5083740;28;20055;-83
2022/12/01 06:08:09;;;;;;;1.65;1.55;;;;;;;-13.37;82.69;101866.72;5076348;28;20049;-83
2022/12/01 06:10:36;;;;;;;1.70;1.60;;;;;;;-13.34;83.00;101873.59;5067799;28;20044;-82
2022/12/01 06:13:03;;;;;;;1.58;1.48;;;;;;;-13.32;82.89;101875.34;5088582;28;20520;-83
2022/12/01 06:15:30;;;;;;;1.60;1.50;;;;;;;-13.30;82.71;101875.28;5091769;28;20048;-82
2022/12/01 06:18:00;;;;;;;1.70;1.60;;;;;;;-13.29;82.63;101876.16;5092941;28;20084;-83
2022/12/01 06:20:40;;;;;;;1.45;1.35;;;;;;;-13.26;82.86;101861.34;5092075;28;20142;-83
2022/12/01 06:23:07;;;;;;;1.50;1.40;;;;;;;-13.19;82.66;101856.91;5090756;28;20051;-82
2022/12/01 06:25:34;;;;;;;1.77;1.67;;;;;;;-13.12;82.67;101864.56;5092193;28;20072;-83
2022/12/01 06:28:01;;;;;;;1.52;1.42;;;;;;;-13.04;82.46;101877.47;5092368;28;20071;-82
2022/12/01 06:30:28;;;;;;;1.50;1.40;;;;;;;-13.01;82.55;101868.75;5092606;28;20063;-85
2022/12/01 06:32:55;;;;;;;1.50;1.40;;;;;;;-12.93;82.42;101861.72;5076269;28;20920;-84
2022/12/01 06:35:22;;;;;;;1.63;1.52;;;;;;;-12.87;82.26;101859.00;5092304;28;20054;-84
2022/12/01 06:37:52;;;;;;;1.70;1.60;;;;;;;-12.79;82.18;101861.47;5092375;28;20044;-84
2022/12/01 06:40:19;;;;;;;1.52;1.42;;;;;;;-12.71;82.08;101868.28;5095001;28;20093;-84
2022/12/01 06:42:46;;;;;;;1.60;1.50;;;;;;;-12.69;82.08;101863.88;5076739;28;20051;-83
2022/12/01 06:45:13;;;;;;;1.60;1.50;;;;;;;-12.60;81.97;101867.22;5092158;28;20067;-82
2022/12/01 06:47:40;;;;;;;1.52;1.42;;;;;;;-12.52;81.92;101865.34;5090631;28;20059;-83
2022/12/01 06:50:09;;;;;;;1.60;1.50;;;;;;;-12.46;81.81;101862.59;5088927;28;20048;-81
2022/12/01 06:52:36;;;;;;;1.60;1.50;;;;;;;-12.46;81.54;101849.59;5087504;28;20465;-83
2022/12/01 06:55:04;;;;;;;1.70;1.60;;;;;;;-12.37;81.50;101862.44;5090000;28;20040;-82
2022/12/01 06:57:32;;;;;;;1.42;1.33;;;;;;;-12.34;81.41;101870.19;5092597;28;20055;-83
2022/12/01 06:59:59;;;;;;;1.52;1.42;;;;;;;-12.24;81.00;101878.69;5089964;28;20079;-83
2022/12/01 07:02:30;;;;;;;1.50;1.40;;;;;;;-12.16;80.89;101874.19;5089136;28;20047;-82
2022/12/01 07:04:57;;;;;;;1.70;1.60;;;;;;;-12.10;80.74;101870.59;5088588;28;20078;-83
2022/12/01 07:07:24;;;;;;;1.75;1.65;;;;;;;-12.05;80.54;101861.84;5087873;28;20200;-82
2022/12/01 07:09:52;;;;;;;1.60;1.50;;;;;;;-12.00;80.44;101864.31;5087850;28;20048;-83
2022/12/01 07:12:19;;;;;;;1.60;1.50;;;;;;;-11.90;80.33;101859.78;5071214;28;20048;-83
2022/12/01 07:14:46;;;;;;;1.60;1.50;;;;;;;-11.76;79.96;101862.09;5087614;28;20052;-83
2022/12/01 07:17:13;;;;;;;1.77;1.67;;;;;;;-11.70;79.83;101864.56;5090355;28;20056;-84
2022/12/01 07:19:41;;;;;;;1.60;1.50;;;;;;;-11.60;79.52;101869.53;4735859;28;9999880;-83
2022/12/01 07:22:08;;;;;;;1.52;1.42;;;;;;;-11.44;79.28;101863.97;5069050;28;20041;-83
2022/12/01 07:24:35;;;;;;;1.73;1.63;;;;;;;-11.09;78.77;101857.97;5067756;28;20071;-82
2022/12/01 07:27:02;;;;;;;1.75;1.65;;;;;;;-10.69;77.99;101851.75;5067734;28;20055;-82
2022/12/01 07:29:29;;;;;;;1.70;1.60;;;;;;;-10.34;77.17;101857.81;5068441;28;20711;-82
2022/12/01 07:31:56;;;;;;;1.70;1.60;;;;;;;-10.01;76.62;101860.38;5068310;28;20162;-84
2022/12/01 07:34:24;;;;;;;1.50;1.40;;;;;;;-9.79;75.83;101853.63;5070940;28;20087;-84
2022/12/01 07:36:51;;;;;;;1.60;1.50;;;;;;;-9.60;74.92;101853.94;5071709;28;20199;-83
2022/12/01 07:39:18;;;;;;;1.70;1.60;;;;;;;-9.35;74.58;101854.03;5069812;28;20056;-83
2022/12/01 07:41:46;;;;;;;1.63;1.52;;;;;;;-9.18;74.03;101851.75;5067621;28;20064;-87
2022/12/01 07:44:13;;;;;;;1.55;1.45;;;;;;;-9.03;73.44;101850.44;5051710;28;20145;-83
2022/12/01 07:46:40;;;;;;;1.58;1.48;;;;;;;-8.92;73.37;101857.06;5065719;28;20536;-82
2022/12/01 07:49:09;;;;;;;1.40;1.30;;;;;;;-8.46;72.84;101856.38;5067360;28;20075;-83
2022/12/01 07:51:36;;;;;;;1.52;1.42;;;;;;;-8.06;71.92;101860.19;5069437;28;20044;-82
2022/12/01 07:54:19;;;;;;;1.70;1.60;;;;;;;-7.93;70.71;101861.44;5078571;28;20059;-83
2022/12/01 07:56:47;;;;;;;1.50;1.40;;;;;;;-7.65;70.25;101861.28;5066474;28;20048;-83
2022/12/01 07:59:15;;;;;;;1.50;1.40;;;;;;;-7.08;68.99;101866.09;5068122;28;20059;-84
2022/12/01 08:01:43;;;;;;;1.40;1.30;;;;;;;-6.73;67.97;101854.16;5050102;28;20427;-84
2022/12/01 08:04:11;;;;;;;1.58;1.48;;;;;;;-6.46;66.83;101860.00;5074011;28;20093;-85
2022/12/01 08:06:38;;;;;;;1.15;1.15;;;;;;;-6.42;66.49;101866.00;5069282;28;20040;-83
2022/12/01 08:09:05;;;;;;;1.05;1.05;;;;;;;-6.62;65.75;101859.81;5077991;28;20597;-84
2022/12/01 08:11:34;;;;;;;1.10;1.10;;;;;;;-6.92;65.95;101867.19;5080460;28;20056;-84
2022/12/01 08:14:01;;;;;;;0.95;0.95;;;;;;;-7.68;66.62;101864.00;5083618;28;20049;-85
2022/12/01 08:16:30;;;;;;;1.25;1.17;;;;;;;-8.34;68.11;101862.94;5078846;28;20044;-84
2022/12/01 08:18:57;;;;;;;1.08;1.08;;;;;;;-8.63;69.11;101863.94;5080394;28;20047;-84
2022/12/01 08:21:25;;;;;;;1.30;1.20;;;;;;;-8.85;69.73;101872.53;5060864;28;20048;-84
2022/12/01 08:23:56;;;;;;;1.10;1.10;;;;;;;-8.89;70.27;101867.44;5068050;28;20114;-88
2022/12/01 08:26:24;;;;;;;0.85;0.85;;;;;;;-8.88;70.55;101864.78;5083644;28;20044;-85
2022/12/01 08:28:51;;;;;;;1.10;1.10;;;;;;;-8.93;70.62;101868.47;5083383;28;20534;-83
2022/12/01 08:31:39;;;;;;;1.13;1.13;;;;;;;-9.11;70.70;101867.25;5081501;28;20048;-83
2022/12/01 08:34:06;;;;;;;1.40;1.30;;;;;;;-9.03;70.81;101876.59;5080130;28;20048;-82
2022/12/01 08:36:34;;;;;;;1.40;1.30;;;;;;;-8.97;70.33;101862.44;5074087;28;20047;-84
2022/12/01 08:39:04;;;;;;;1.45;1.35;;;;;;;-9.32;70.33;101853.94;5077948;28;20540;-85
2022/12/01 08:41:31;;;;;;;1.40;1.30;;;;;;;-9.32;70.90;101848.72;5075411;28;20091;-86
2022/12/01 08:43:59;;;;;;;1.30;1.20;;;;;;;-8.72;70.34;101850.25;5086423;28;20421;-85
2022/12/01 08:46:31;;;;;;;1.50;1.40;;;;;;;-7.56;68.93;101849.59;5083838;28;20048;-84
2022/12/01 08:48:59;;;;;;;1.42;1.33;;;;;;;-6.00;66.59;101846.63;5082910;28;20459;-86
2022/12/01 08:51:26;;;;;;;1.13;1.13;;;;;;;-4.76;62.59;101830.22;5094379;28;20044;-89
2022/12/01 08:53:55;;;;;;;1.40;1.30;;;;;;;-4.30;60.38;101821.72;5059394;28;20075;-88
2022/12/01 08:56:32;;;;;;;0.98;0.98;;;;;;;-4.69;59.93;101820.22;5084103;28;20053;-86
2022/12/01 08:58:59;;;;;;;1.15;1.15;;;;;;;-5.62;60.68;101822.97;5084852;28;20493;-85
2022/12/01 09:01:27;;;;;;;1.10;1.10;;;;;;;-6.62;61.81;101830.06;5094709;28;20063;-87
2022/12/01 09:04:07;;;;;;;1.10;1.10;;;;;;;-6.83;63.47;101834.47;5094178;28;20044;-85
2022/12/01 09:06:41;;;;;;;1.05;1.05;;;;;;;-7.07;64.38;101833.69;5085950;28;20055;-86
2022/12/01 09:09:11;;;;;;;1.02;1.02;;;;;;;-7.19;65.44;101835.00;5087187;28;20052;-87
2022/12/01 09:11:39;;;;;;;1.05;1.05;;;;;;;-7.29;66.00;101833.66;5081840;28;20052;-86
2022/12/01 09:14:06;;;;;;;1.05;1.05;;;;;;;-7.61;66.43;101824.47;5083911;28;20052;-85
2022/12/01 09:16:39;;;;;;;1.15;1.13;;;;;;;-7.86;67.25;101830.63;5068470;28;20050;-86
2022/12/01 09:19:06;;;;;;;1.00;1.00;;;;;;;-8.09;68.11;101834.09;5084647;28;20540;-84
2022/12/01 09:21:36;;;;;;;1.05;1.05;;;;;;;-8.10;68.43;101832.38;5091434;28;20040;-84
2022/12/01 09:24:05;;;;;;;1.00;1.00;;;;;;;-8.11;68.82;101831.50;5092148;28;20044;-84
2022/12/01 09:26:33;;;;;;;1.30;1.20;;;;;;;-8.07;68.86;101827.88;5094660;28;20482;-84
2022/12/01 09:29:03;;;;;;;1.17;1.15;;;;;;;-7.55;68.22;101816.34;5093204;28;20047;-87
2022/12/01 09:31:35;;;;;;;1.30;1.20;;;;;;;-7.16;67.35;101829.66;5094421;28;20062;-83
2022/12/01 09:34:05;;;;;;;1.00;1.00;;;;;;;-7.34;67.35;101833.00;5087443;28;20518;-83
2022/12/01 09:36:34;;;;;;;1.00;1.00;;;;;;;-7.30;67.72;101837.22;4733672;28;9999936;-84
2022/12/01 09:39:02;;;;;;;1.48;1.38;;;;;;;-6.74;67.23;101836.69;5091112;28;20505;-84
2022/12/01 09:41:33;;;;;;;1.60;1.50;;;;;;;-5.38;65.16;101834.13;5091079;28;20056;-84
2022/12/01 09:44:19;;;;;;;1.17;1.17;;;;;;;-4.03;61.64;101822.06;5088995;28;20048;-85
2022/12/01 09:46:53;;;;;;;1.08;1.08;;;;;;;-3.11;59.18;101825.78;5091206;28;20075;-84
2022/12/01 09:49:27;;;;;;;1.17;1.17;;;;;;;-2.14;56.55;101829.84;5091780;28;20052;-85
2022/12/01 09:51:55;;;;;;;1.30;1.23;;;;;;;-1.59;54.47;101824.63;5067705;28;20514;-84
2022/12/01 09:54:22;;;;;;;1.30;1.23;;;;;;;-1.33;53.43;101817.66;5077659;28;20044;-83
2022/12/01 09:56:52;;;;;;;1.30;1.20;;;;;;;-1.03;52.06;101816.63;5085143;28;20051;-86
2022/12/01 09:59:22;;;;;;;0.88;0.88;;;;;;;-1.49;52.21;101795.75;5089341;28;20052;-83
2022/12/01 10:01:55;;;;;;;1.17;1.15;;;;;;;-1.81;53.08;101816.31;5090436;28;20052;-83
2022/12/01 10:04:43;;;;;;;1.10;1.10;;;;;;;-2.19;53.84;101816.88;5064217;28;20513;-85
2022/12/01 10:07:23;;;;;;;0.90;0.90;;;;;;;-2.15;53.90;101814.88;5084757;28;20044;-84
2022/12/01 10:10:09;;;;;;;1.00;1.00;;;;;;;-1.72;53.08;101825.47;5082457;28;20510;-83
2022/12/01 10:12:36;;;;;;;1.40;1.30;;;;;;;-1.06;51.91;101808.00;5053002;28;20048;-84
2022/12/01 10:15:14;;;;;;;1.17;1.17;;;;;;;-0.40;50.15;101811.56;5085221;28;20048;-84
2022/12/01 10:18:06;;;;;;;1.35;1.25;;;;;;;-0.44;49.95;101809.09;5092246;28;20050;-84
2022/12/01 10:21:02;;;;;;;1.10;1.10;;;;;;;-1.02;50.44;101793.59;5089866;28;20052;-83
2022/12/01 10:23:55;;;;;;;1.00;1.00;;;;;;;-1.94;52.36;101802.16;5082456;28;20048;-84
2022/12/01 10:26:41;;;;;;;1.10;1.10;;;;;;;-2.58;53.52;101817.47;5085835;28;20055;-83
2022/12/01 10:29:12;;;;;;;1.00;1.00;;;;;;;-3.26;54.87;101813.47;5086010;28;20394;-84
2022/12/01 10:31:45;;;;;;;0.77;0.77;;;;;;;-3.77;56.30;101807.50;5090013;28;20809;-84
2022/12/01 10:34:25;;;;;;;0.60;0.60;;;;;;;-4.16;57.06;101816.59;5089515;28;20048;-82
2022/12/01 10:36:53;;;;;;;1.00;1.00;;;;;;;-4.45;57.58;101799.66;5091078;28;20101;-82
2022/12/01 10:39:30;;;;;;;1.05;1.05;;;;;;;-4.72;58.33;101792.22;5085236;28;20078;-82
2022/12/01 10:42:05;;;;;;;0.80;0.80;;;;;;;-4.77;58.76;101790.78;5086454;28;20498;-82
2022/12/01 10:44:33;;;;;;;1.00;1.00;;;;;;;-4.36;58.18;101788.63;5071822;28;20063;-83
2022/12/01 10:47:16;;;;;;;0.90;0.90;;;;;;;-3.65;56.90;101796.25;5078358;28;20146;-83
2022/12/01 10:49:43;;;;;;;0.93;0.93;;;;;;;-3.51;56.12;101798.97;5036339;28;20460;-83
2022/12/01 10:52:35;;;;;;;0.80;0.80;;;;;;;-4.07;56.86;101802.09;5085862;28;20383;-83
2022/12/01 10:55:05;;;;;;;1.00;1.00;;;;;;;-4.50;57.95;101791.16;5090001;28;20044;-83
2022/12/01 10:57:32;;;;;;;0.90;0.90;;;;;;;-4.83;58.59;101800.69;5092622;28;20549;-84
2022/12/01 11:00:04;;;;;;;0.80;0.80;;;;;;;-5.21;59.76;101805.22;5094848;28;20048;-83
2022/12/01 11:02:32;;;;;;;0.90;0.90;;;;;;;-5.38;60.36;101798.13;5092870;28;20047;-83
2022/12/01 11:05:07;;;;;;;1.05;1.05;;;;;;;-5.56;60.66;101799.84;5090172;28;20291;-83
2022/12/01 11:07:47;;;;;;;0.77;0.77;;;;;;;-5.51;60.97;101804.91;5091182;28;20048;-84
2022/12/01 11:10:16;;;;;;;0.90;0.90;;;;;;;-5.54;60.89;101805.06;5070043;28;20564;-83
2022/12/01 11:13:03;;;;;;;0.70;0.70;;;;;;;-5.79;61.32;101802.72;5053139;28;20101;-83
2022/12/01 11:15:33;;;;;;;0.70;0.70;;;;;;;-6.08;62.46;101801.44;5070354;28;20048;-82
2022/12/01 11:18:21;;;;;;;0.80;0.80;;;;;;;-6.16;63.18;101809.66;5069465;28;20056;-84
2022/12/01 11:21:03;;;;;;;0.90;0.90;;;;;;;-6.29;63.34;101772.56;5069164;28;20074;-84
2022/12/01 11:23:30;;;;;;;0.85;0.85;;;;;;;-5.95;63.32;101805.22;5083603;28;20056;-82
2022/12/01 11:26:06;;;;;;;0.90;0.90;;;;;;;-5.83;62.70;101802.00;5079016;28;20047;-84
2022/12/01 11:28:35;;;;;;;0.80;0.80;;;;;;;-6.07;62.68;101793.50;5085589;28;20055;-83
2022/12/01 11:31:11;;;;;;;0.80;0.80;;;;;;;-6.17;63.36;101789.56;5054161;28;20084;-83
2022/12/01 11:33:49;;;;;;;0.63;0.63;;;;;;;-6.27;63.72;101781.22;5071634;28;20503;-84
2022/12/01 11:36:22;;;;;;;0.80;0.80;;;;;;;-6.24;64.08;101799.50;5093527;28;20048;-83
2022/12/01 11:38:54;;;;;;;0.70;0.70;;;;;;;-6.06;64.65;101786.44;5057395;28;20056;-84
2022/12/01 11:41:37;;;;;;;0.68;0.68;;;;;;;-5.68;64.83;101779.38;5052872;28;20094;-84